Time;durP1;ratioP1;P1;durP2;ratioP2;P2;SDS_P1;SDS_P2;PMS_P1;PMS_P2;Temp;Humidity;BMP_temperature;BMP_pressure;BME280_temperature;BME280_humidity;BME280_pressure;Samples;Min_cycle;Max_cycle;Signal;HPM_P1;HPM_P2
2023/06/27 00:04:47;;;;;;;3.03;1.42;;;;;;;21.79;54.59;97116.97;10381729;28;20060;-31
2023/06/27 00:09:47;;;;;;;2.58;1.65;;;;;;;21.85;53.69;97121.16;10378824;28;20021;-30
2023/06/27 00:14:48;;;;;;;6.63;2.50;;;;;;;21.78;53.76;97122.91;10377471;28;20493;-31
2023/06/27 00:19:49;;;;;;;3.78;1.90;;;;;;;21.70;55.71;97123.81;10368938;28;20045;-30
2023/06/27 00:24:49;;;;;;;1.90;1.45;;;;;;;21.65;55.88;97118.75;10378390;28;20095;-31
2023/06/27 00:29:50;;;;;;;5.07;1.97;;;;;;;21.60;56.28;97112.81;10379043;28;20091;-31
2023/06/27 00:34:50;;;;;;;2.40;1.20;;;;;;;21.58;56.34;97119.63;10369995;28;20038;-31
2023/06/27 00:39:51;;;;;;;2.57;1.30;;;;;;;21.57;56.48;97117.91;10384231;28;20026;-31
2023/06/27 00:44:51;;;;;;;3.15;1.40;;;;;;;21.54;56.61;97117.94;10375898;28;20038;-31
2023/06/27 00:49:52;;;;;;;3.43;1.50;;;;;;;21.76;53.88;97122.09;10384038;28;20083;-31
2023/06/27 00:54:53;;;;;;;3.08;1.30;;;;;;;21.82;52.98;97121.19;10349735;28;20037;-30
2023/06/27 00:59:54;;;;;;;3.63;1.70;;;;;;;21.77;53.46;97126.34;10360651;28;20418;-31
2023/06/27 01:04:54;;;;;;;2.35;1.38;;;;;;;21.69;54.93;97133.19;10366726;28;20025;-31
2023/06/27 01:10:03;;;;;;;3.77;1.83;;;;;;;21.65;55.35;97128.94;10350721;28;20030;-30
2023/06/27 01:15:04;;;;;;;4.93;1.77;;;;;;;21.59;55.68;97131.50;10357469;28;20328;-31
2023/06/27 01:20:07;;;;;;;6.55;2.10;;;;;;;21.60;55.49;97132.34;10340956;28;20410;-31
2023/06/27 01:25:08;;;;;;;3.85;1.40;;;;;;;21.57;55.89;97130.66;10362469;28;20132;-30
2023/06/27 01:30:10;;;;;;;4.03;1.55;;;;;;;21.57;55.60;97138.28;10398764;28;20025;-31
2023/06/27 01:35:22;;;;;;;4.13;1.75;;;;;;;21.77;52.88;97128.03;10366742;28;20431;-30
2023/06/27 01:40:26;;;;;;;2.20;1.48;;;;;;;21.83;52.64;97125.44;10384676;28;20505;-31
2023/06/27 01:45:28;;;;;;;3.25;1.40;;;;;;;21.75;53.41;97125.50;10381185;28;20116;-31
2023/06/27 01:50:28;;;;;;;3.33;1.63;;;;;;;21.69;54.04;97111.94;10384396;28;20083;-31
2023/06/27 01:55:29;;;;;;;4.05;1.40;;;;;;;21.61;55.41;97108.53;10400418;28;20095;-30
2023/06/27 02:00:30;;;;;;;5.30;1.73;;;;;;;21.62;54.17;97100.03;10384476;28;20045;-31
2023/06/27 02:05:30;;;;;;;3.40;1.53;;;;;;;21.58;55.34;97093.28;10410526;28;20472;-31
2023/06/27 02:10:31;;;;;;;2.00;1.33;;;;;;;21.58;55.18;97104.34;10380339;28;20283;-31
2023/06/27 02:15:31;;;;;;;1.97;0.97;;;;;;;21.58;55.02;97100.94;10373905;28;20348;-30
2023/06/27 02:20:38;;;;;;;2.60;1.33;;;;;;;21.71;52.88;97093.22;10382516;28;20029;-31
2023/06/27 02:25:38;;;;;;;5.33;1.20;;;;;;;21.80;52.68;97088.06;10381603;28;20038;-30
2023/06/27 02:30:41;;;;;;;2.70;1.48;;;;;;;21.77;53.18;97090.66;10407134;28;20064;-30
2023/06/27 02:35:41;;;;;;;4.13;1.40;;;;;;;21.68;54.39;97080.53;10380243;28;20573;-31
2023/06/27 02:40:43;;;;;;;2.60;1.40;;;;;;;21.62;55.04;97089.84;10397046;28;20037;-31
2023/06/27 02:45:43;;;;;;;4.07;1.20;;;;;;;21.59;55.50;97089.88;10401975;28;20037;-31
2023/06/27 02:50:49;;;;;;;1.58;1.17;;;;;;;21.59;54.87;97092.44;10398566;28;20532;-30
2023/06/27 02:55:50;;;;;;;2.80;1.42;;;;;;;21.56;55.32;97090.75;10385710;28;20122;-31
2023/06/27 03:00:50;;;;;;;2.28;1.30;;;;;;;21.54;55.65;97096.69;10409017;28;20095;-31
2023/06/27 03:05:54;;;;;;;3.28;1.45;;;;;;;21.66;53.67;97099.22;10369331;28;20031;-30
2023/06/27 03:10:56;;;;;;;1.88;1.35;;;;;;;21.79;52.97;97100.81;10407258;28;20026;-31
2023/06/27 03:15:56;;;;;;;3.60;1.23;;;;;;;21.75;52.90;97107.66;10397992;28;20041;-30
2023/06/27 03:21:00;;;;;;;2.63;1.20;;;;;;;21.71;53.62;97103.41;10395569;28;20038;-31
2023/06/27 03:26:00;;;;;;;1.63;1.27;;;;;;;21.64;54.49;97100.91;10404484;28;20056;-30
2023/06/27 03:31:01;;;;;;;4.25;1.70;;;;;;;21.57;54.89;97102.63;10371007;28;20033;-30
2023/06/27 03:36:02;;;;;;;3.73;1.67;;;;;;;21.55;55.41;97104.34;10405619;28;20782;-30
2023/06/27 03:41:05;;;;;;;4.15;1.50;;;;;;;21.52;55.34;97094.19;10387142;28;20068;-30
2023/06/27 03:46:06;;;;;;;2.92;1.33;;;;;;;21.52;52.83;97104.38;10374717;28;20705;-30
2023/06/27 03:51:07;;;;;;;1.92;1.60;;;;;;;21.83;52.54;97102.50;10371229;28;20025;-31
2023/06/27 03:56:07;;;;;;;6.37;1.67;;;;;;;21.79;50.78;97091.47;10363489;28;20403;-30
2023/06/27 04:01:08;;;;;;;7.03;2.20;;;;;;;21.70;50.22;97091.53;10362629;28;20296;-31
2023/06/27 04:06:09;;;;;;;5.10;1.90;;;;;;;21.62;50.42;97085.63;10345346;28;20850;-30
2023/06/27 04:11:09;;;;;;;4.80;1.50;;;;;;;21.62;50.17;97090.72;10359266;28;20402;-30
2023/06/27 04:16:10;;;;;;;4.10;1.70;;;;;;;21.62;50.42;97105.13;10370804;28;20501;-30
2023/06/27 04:21:10;;;;;;;2.55;1.55;;;;;;;21.58;50.21;97103.47;10371242;28;20037;-31
2023/06/27 04:26:15;;;;;;;3.77;1.67;;;;;;;21.56;50.38;97113.66;10346955;28;20073;-31
2023/06/27 04:31:15;;;;;;;7.03;1.83;;;;;;;21.51;50.60;97107.78;10338284;28;20080;-30
2023/06/27 04:36:20;;;;;;;4.15;1.48;;;;;;;21.42;51.92;97105.28;10343066;28;20455;-30
2023/06/27 04:41:20;;;;;;;6.15;1.80;;;;;;;21.59;50.68;97098.38;10363560;28;20026;-31
2023/06/27 04:46:20;;;;;;;9.37;2.60;;;;;;;21.54;51.02;97105.19;10357483;28;20025;-30
2023/06/27 04:51:21;;;;;;;10.63;2.23;;;;;;;21.42;52.09;97104.41;10371503;28;20125;-31
2023/06/27 04:56:26;;;;;;;6.60;2.03;;;;;;;21.43;52.97;97101.88;10372666;28;20034;-30
2023/06/27 05:01:27;;;;;;;9.63;2.43;;;;;;;21.40;52.85;97101.03;10369068;28;20034;-31
2023/06/27 05:06:27;;;;;;;5.57;1.60;;;;;;;21.39;53.86;97100.19;10367822;28;20033;-30
2023/06/27 05:11:27;;;;;;;5.33;1.77;;;;;;;21.37;54.35;97095.94;10362958;28;20273;-30
2023/06/27 05:16:28;;;;;;;10.37;2.13;;;;;;;21.46;52.50;97111.22;10375227;28;20025;-29
2023/06/27 05:21:29;;;;;;;15.87;2.70;;;;;;;21.42;52.90;97109.50;10368622;28;20291;-30
2023/06/27 05:26:29;;;;;;;4.40;2.28;;;;;;;21.24;52.43;97102.81;10391468;28;20096;-30
2023/06/27 05:31:30;;;;;;;8.60;2.43;;;;;;;21.26;52.98;97111.31;10346848;28;20446;-30
2023/06/27 05:36:30;;;;;;;4.83;3.27;;;;;;;21.44;52.78;97116.31;10362366;28;20030;-30
2023/06/27 05:41:32;;;;;;;4.57;1.87;;;;;;;21.45;53.50;97109.50;10400088;28;20030;-31
2023/06/27 05:46:39;;;;;;;4.95;1.73;;;;;;;21.41;54.24;97103.56;10395156;28;20025;-30
2023/06/27 05:51:39;;;;;;;6.93;1.73;;;;;;;21.39;54.52;97107.00;10406037;28;20048;-31
2023/06/27 05:56:39;;;;;;;3.03;1.60;;;;;;;21.38;54.70;97106.13;10408106;28;20385;-31
2023/06/27 06:01:40;;;;;;;6.30;2.07;;;;;;;21.37;54.83;97094.25;10382550;28;20489;-30
2023/06/27 06:06:41;;;;;;;5.07;1.83;;;;;;;21.36;54.82;97096.81;10398598;28;20111;-30
2023/06/27 06:11:41;;;;;;;5.05;1.60;;;;;;;21.35;54.92;97079.84;10359389;28;20032;-30
2023/06/27 06:16:42;;;;;;;6.17;1.53;;;;;;;21.57;53.46;97092.44;10379447;28;20029;-30
2023/06/27 06:21:42;;;;;;;4.28;1.58;;;;;;;21.66;53.48;97087.31;10407733;28;20472;-30
2023/06/27 06:26:45;;;;;;;1.85;1.40;;;;;;;21.61;53.89;97098.34;10401889;28;20025;-31
2023/06/27 06:31:45;;;;;;;2.60;1.25;;;;;;;21.50;54.54;97100.13;10407890;28;20025;-30
2023/06/27 06:36:45;;;;;;;5.80;1.73;;;;;;;21.49;54.73;97103.53;10381451;28;20034;-30
2023/06/27 06:41:46;;;;;;;3.07;1.60;;;;;;;21.49;55.10;97104.38;10406224;28;20401;-31
2023/06/27 06:46:46;;;;;;;5.00;1.83;;;;;;;21.49;54.98;97099.28;10403022;28;20494;-31
2023/06/27 06:51:46;;;;;;;2.20;1.23;;;;;;;21.50;55.08;97093.34;10412111;28;20040;-30
2023/06/27 06:56:49;;;;;;;1.97;1.27;;;;;;;21.50;55.23;97084.84;10411879;28;20393;-31
2023/06/27 07:01:50;;;;;;;4.07;1.50;;;;;;;21.59;54.41;97084.78;10414671;28;20045;-31
2023/06/27 07:06:50;;;;;;;3.55;1.30;;;;;;;21.74;53.88;97085.56;10389200;28;20481;-32
2023/06/27 07:11:51;;;;;;;3.43;1.50;;;;;;;21.70;54.57;97090.69;10395293;28;20400;-31
2023/06/27 07:16:51;;;;;;;2.67;1.35;;;;;;;21.61;55.13;97089.03;10404730;28;20501;-30
2023/06/27 07:21:51;;;;;;;1.83;0.90;;;;;;;21.55;55.26;97081.41;10408452;28;20102;-31
2023/06/27 07:26:52;;;;;;;2.23;1.33;;;;;;;21.53;55.22;97080.56;10396675;28;20584;-31
2023/06/27 07:31:52;;;;;;;2.13;1.30;;;;;;;21.52;55.48;97078.88;10401875;28;20014;-31
2023/06/27 07:36:53;;;;;;;2.00;1.33;;;;;;;21.49;55.33;97068.69;10396769;28;20030;-31
2023/06/27 07:41:53;;;;;;;3.03;1.20;;;;;;;21.50;55.55;97074.66;10382908;28;20041;-30
2023/06/27 07:46:54;;;;;;;1.75;1.00;;;;;;;21.51;55.78;97082.31;10378824;28;20045;-30
2023/06/27 07:51:54;;;;;;;1.20;1.10;;;;;;;21.71;54.61;97075.38;10403962;28;20417;-31
2023/06/27 07:56:56;;;;;;;2.93;1.30;;;;;;;21.77;54.41;97085.56;10394338;28;20033;-30
2023/06/27 08:01:56;;;;;;;1.30;1.00;;;;;;;21.65;54.60;97083.06;10404006;28;20063;-31
2023/06/27 08:06:57;;;;;;;1.57;1.10;;;;;;;21.53;55.40;97080.56;10381990;28;20035;-30
2023/06/27 08:11:57;;;;;;;2.87;1.20;;;;;;;21.54;55.48;97087.38;10387572;28;20042;-32
2023/06/27 08:16:57;;;;;;;2.60;1.10;;;;;;;21.51;55.63;97082.31;10370590;28;20026;-31
2023/06/27 08:21:58;;;;;;;2.67;1.35;;;;;;;21.51;55.56;97077.19;10381771;28;20045;-33
2023/06/27 08:26:59;;;;;;;1.80;1.30;;;;;;;21.50;55.52;97070.41;10376520;28;20057;-31
2023/06/27 08:31:59;;;;;;;2.27;0.90;;;;;;;21.50;55.72;97070.41;10383232;28;20030;-31
2023/06/27 08:37:00;;;;;;;2.17;1.10;;;;;;;21.64;55.13;97063.50;10384752;28;20296;-31
2023/06/27 08:42:01;;;;;;;1.97;1.00;;;;;;;21.77;54.85;97065.16;10369858;28;20520;-33
2023/06/27 08:47:05;;;;;;;1.88;1.20;;;;;;;21.76;54.78;97066.03;10376716;28;20030;-31
2023/06/27 08:52:11;;;;;;;1.63;1.00;;;;;;;21.64;55.35;97071.16;10385024;28;20042;-31
2023/06/27 08:57:14;;;;;;;1.75;1.08;;;;;;;21.59;55.60;97064.41;10365866;28;20121;-31
2023/06/27 09:02:15;;;;;;;1.67;0.98;;;;;;;21.57;55.63;97059.31;10363081;28;20120;-30
2023/06/27 09:07:16;;;;;;;1.75;0.88;;;;;;;21.55;55.71;97061.03;10367315;28;20048;-30
2023/06/27 09:12:16;;;;;;;1.73;1.05;;;;;;;21.52;55.92;97055.97;10377627;28;20025;-30
2023/06/27 09:17:17;;;;;;;1.52;0.90;;;;;;;21.53;55.88;97055.09;10374095;28;20037;-30
2023/06/27 09:22:19;;;;;;;2.97;1.00;;;;;;;21.53;55.73;97052.56;10368984;28;20438;-30
2023/06/27 09:27:30;;;;;;;1.73;1.13;;;;;;;21.73;55.28;97050.72;10373511;28;20033;-31
2023/06/27 09:32:30;;;;;;;1.27;0.90;;;;;;;21.79;55.06;97042.19;10366931;28;20117;-30
2023/06/27 09:37:31;;;;;;;1.40;0.73;;;;;;;21.67;55.51;97050.78;10371818;28;20056;-30
2023/06/27 09:42:32;;;;;;;1.77;0.80;;;;;;;21.59;55.82;97055.06;10382697;28;20414;-31
2023/06/27 09:47:35;;;;;;;1.60;0.75;;;;;;;21.56;55.89;97055.06;10378511;28;20041;-31
2023/06/27 09:52:36;;;;;;;1.73;0.80;;;;;;;21.55;55.68;97047.44;10375999;28;20293;-30
2023/06/27 09:57:37;;;;;;;1.20;0.80;;;;;;;21.53;55.92;97044.91;10373818;28;20037;-30
2023/06/27 10:02:37;;;;;;;0.75;0.70;;;;;;;21.51;55.97;97051.72;10367651;28;20057;-31
2023/06/27 10:07:39;;;;;;;1.35;0.82;;;;;;;21.51;55.95;97041.53;10381737;28;20034;-31
2023/06/27 10:12:40;;;;;;;1.33;0.73;;;;;;;21.68;55.65;97043.97;10362269;28;20505;-31
2023/06/27 10:17:41;;;;;;;1.15;0.98;;;;;;;21.80;55.30;97043.91;10363615;28;20056;-30
2023/06/27 10:22:44;;;;;;;1.25;1.00;;;;;;;21.75;55.38;97046.50;10370786;28;20025;-30
2023/06/27 10:27:44;;;;;;;1.08;0.93;;;;;;;21.63;55.78;97045.69;10375827;28;20037;-31
2023/06/27 10:32:45;;;;;;;1.43;0.90;;;;;;;21.57;55.81;97044.00;10381721;28;20032;-31
2023/06/27 10:38:04;;;;;;;0.88;0.70;;;;;;;21.54;56.07;97051.69;10366517;28;20703;-30
2023/06/27 10:43:04;;;;;;;1.17;0.80;;;;;;;21.54;56.10;97050.84;10373749;28;20129;-32
2023/06/27 10:48:05;;;;;;;1.60;0.93;;;;;;;21.52;56.11;97053.41;10365812;28;20120;-30
2023/06/27 10:53:06;;;;;;;0.83;0.80;;;;;;;21.51;56.26;97056.81;10381154;28;20034;-31
2023/06/27 10:58:10;;;;;;;0.70;0.70;;;;;;;21.58;55.92;97045.75;10381680;28;20111;-31
2023/06/27 11:03:10;;;;;;;1.30;0.88;;;;;;;21.76;55.46;97045.63;10373861;28;20034;-30
2023/06/27 11:08:13;;;;;;;1.53;0.90;;;;;;;21.81;55.30;97041.31;10380202;28;20049;-31
2023/06/27 11:13:22;;;;;;;1.10;0.75;;;;;;;21.70;55.58;97042.25;10381672;28;20367;-31
2023/06/27 11:18:26;;;;;;;1.70;0.70;;;;;;;21.59;55.98;97044.88;10387819;28;20453;-30
2023/06/27 11:23:29;;;;;;;1.05;0.75;;;;;;;21.56;56.02;97044.88;10381447;28;20038;-30
2023/06/27 11:28:29;;;;;;;0.65;0.60;;;;;;;21.53;56.24;97055.09;10395623;28;20401;-31
2023/06/27 11:33:30;;;;;;;0.80;0.80;;;;;;;21.52;56.16;97043.22;10379252;28;20168;-31
2023/06/27 11:38:30;;;;;;;0.60;0.60;;;;;;;21.51;56.15;97038.97;10380049;28;20026;-30
2023/06/27 11:43:31;;;;;;;0.98;0.70;;;;;;;21.51;56.21;97033.03;10378751;28;20037;-30
2023/06/27 11:48:35;;;;;;;2.13;0.83;;;;;;;21.68;56.17;97029.53;10371582;28;20039;-31
2023/06/27 11:53:36;;;;;;;1.55;1.00;;;;;;;21.83;55.70;97023.47;10378653;28;20030;-31
2023/06/27 11:58:37;;;;;;;1.17;0.90;;;;;;;21.77;55.67;97019.28;10371389;28;20556;-31
2023/06/27 12:03:37;;;;;;;1.17;0.80;;;;;;;21.65;55.88;97009.16;10390304;28;20095;-31
2023/06/27 12:08:37;;;;;;;1.37;0.77;;;;;;;21.60;56.05;97010.88;10385103;28;20044;-31
2023/06/27 12:13:38;;;;;;;0.87;0.77;;;;;;;21.56;56.14;97009.19;10363099;28;20099;-30
2023/06/27 12:18:45;;;;;;;1.33;0.95;;;;;;;21.57;56.19;97004.97;10386846;28;20034;-31
2023/06/27 12:23:46;;;;;;;2.38;1.50;;;;;;;21.56;56.22;96988.00;10374587;28;20049;-31
2023/06/27 12:28:55;;;;;;;1.95;0.80;;;;;;;21.55;56.23;96976.94;10395059;28;20038;-31
2023/06/27 12:33:58;;;;;;;5.18;1.40;;;;;;;21.60;55.98;96969.25;10377125;28;20041;-30
2023/06/27 12:39:00;;;;;;;2.55;1.00;;;;;;;21.78;55.45;96975.09;10379723;28;20545;-30
2023/06/27 12:44:01;;;;;;;2.53;1.10;;;;;;;21.82;55.49;96961.44;10368486;28;20460;-31
2023/06/27 12:49:01;;;;;;;1.53;0.70;;;;;;;21.70;55.83;96951.38;10376502;28;20124;-31
2023/06/27 12:54:01;;;;;;;0.90;0.77;;;;;;;21.61;55.96;96951.41;10388333;28;20735;-30
2023/06/27 12:59:02;;;;;;;5.87;0.73;;;;;;;21.57;56.29;96939.53;10361383;28;20061;-31
2023/06/27 13:04:03;;;;;;;3.30;1.10;;;;;;;21.55;56.35;96941.28;10370516;28;20388;-31
2023/06/27 13:09:03;;;;;;;6.57;1.50;;;;;;;21.55;56.36;96945.53;10390607;28;20056;-30
2023/06/27 13:14:06;;;;;;;2.70;1.00;;;;;;;21.54;56.35;96944.69;10385595;28;20497;-30
2023/06/27 13:19:07;;;;;;;2.03;0.77;;;;;;;21.54;56.54;96933.63;10382408;28;20049;-30
2023/06/27 13:24:08;;;;;;;2.30;0.98;;;;;;;21.72;56.39;96936.91;10367809;28;20057;-29
2023/06/27 13:29:09;;;;;;;5.03;1.40;;;;;;;21.85;55.64;96927.44;10360082;28;20508;-30
2023/06/27 13:34:09;;;;;;;2.47;1.38;;;;;;;21.79;55.74;96918.16;10345627;28;20402;-30
2023/06/27 13:39:09;;;;;;;3.63;1.30;;;;;;;21.67;56.07;96931.03;10362555;28;20037;-29
2023/06/27 13:44:11;;;;;;;6.72;1.38;;;;;;;21.64;56.16;96931.00;10362686;28;20040;-31
2023/06/27 13:49:11;;;;;;;2.92;0.90;;;;;;;21.57;56.22;96919.16;10382434;28;20471;-31
2023/06/27 13:54:11;;;;;;;2.07;1.10;;;;;;;21.57;56.33;96919.16;10379161;28;20034;-31
2023/06/27 13:59:12;;;;;;;2.80;0.97;;;;;;;21.55;56.54;96925.97;10391257;28;20088;-30
2023/06/27 14:04:13;;;;;;;4.00;1.00;;;;;;;21.52;56.54;96928.56;10378354;28;20048;-31
2023/06/27 14:09:14;;;;;;;6.75;1.90;;;;;;;21.59;56.56;96932.75;10375481;28;20112;-31
2023/06/27 14:14:14;;;;;;;4.65;1.80;;;;;;;21.80;55.77;96927.47;10366297;28;20073;-31
2023/06/27 14:19:15;;;;;;;4.40;1.70;;;;;;;21.86;55.46;96921.47;10365981;28;20521;-32
2023/06/27 14:24:15;;;;;;;6.07;1.10;;;;;;;21.75;55.82;96929.25;10383195;28;20046;-31
2023/06/27 14:29:15;;;;;;;5.07;1.03;;;;;;;21.65;56.17;96916.59;10372754;28;20041;-31
2023/06/27 14:34:16;;;;;;;3.63;1.20;;;;;;;21.59;56.32;96922.56;10340967;28;20546;-31
2023/06/27 14:39:16;;;;;;;3.63;1.47;;;;;;;21.57;56.59;96911.53;10399145;28;20401;-31
2023/06/27 14:44:16;;;;;;;6.90;1.27;;;;;;;21.56;56.43;96903.91;10386963;28;20041;-30
2023/06/27 14:49:17;;;;;;;7.07;0.95;;;;;;;21.56;56.38;96901.38;10398620;28;20037;-31
2023/06/27 14:54:17;;;;;;;2.43;0.80;;;;;;;21.52;56.61;96898.00;10376042;28;20036;-31
2023/06/27 14:59:17;;;;;;;3.53;1.30;;;;;;;21.70;56.09;96904.63;10390720;28;20037;-30
2023/06/27 15:04:18;;;;;;;4.00;1.53;;;;;;;21.85;55.47;96892.59;10386374;28;20034;-31
2023/06/27 15:09:18;;;;;;;4.23;1.50;;;;;;;21.80;55.58;96891.78;10398247;28;20044;-31
2023/06/27 15:14:18;;;;;;;3.67;1.75;;;;;;;21.71;56.01;96886.78;10395865;28;20160;-31
2023/06/27 15:19:19;;;;;;;4.00;1.50;;;;;;;21.62;56.23;96881.75;10364680;28;20034;-30
2023/06/27 15:24:19;;;;;;;4.57;1.30;;;;;;;21.57;56.44;96888.59;10366011;28;20042;-31
2023/06/27 15:29:19;;;;;;;2.10;1.10;;;;;;;21.56;56.30;96884.34;10373033;28;20046;-31
2023/06/27 15:34:20;;;;;;;1.77;1.00;;;;;;;21.55;56.52;96875.03;10330946;28;20030;-30
2023/06/27 15:39:20;;;;;;;1.33;0.97;;;;;;;21.59;56.29;96870.75;10338782;28;20034;-30
2023/06/27 15:44:21;;;;;;;1.93;1.13;;;;;;;21.79;55.73;96854.44;10348442;28;20099;-30
2023/06/27 15:49:21;;;;;;;1.45;1.00;;;;;;;21.86;55.62;96856.06;10380429;28;20300;-30
2023/06/27 15:54:22;;;;;;;2.23;1.27;;;;;;;21.77;55.73;96852.75;10377044;28;20128;-31
2023/06/27 15:59:22;;;;;;;2.97;1.23;;;;;;;21.69;56.04;96851.97;10373396;28;20047;-30
2023/06/27 16:04:22;;;;;;;4.80;1.00;;;;;;;21.63;56.37;96845.22;10361000;28;20111;-31
2023/06/27 16:09:23;;;;;;;3.37;1.27;;;;;;;21.57;56.43;96841.91;10377589;28;20038;-30
2023/06/27 16:14:23;;;;;;;3.17;1.25;;;;;;;21.57;56.42;96847.81;10395412;28;20123;-31
2023/06/27 16:19:24;;;;;;;2.43;1.00;;;;;;;21.58;56.65;96841.03;10386355;28;20056;-30
2023/06/27 16:24:24;;;;;;;3.10;1.17;;;;;;;21.58;56.69;96839.34;10405901;28;20072;-30
2023/06/27 16:29:24;;;;;;;3.83;1.10;;;;;;;21.72;56.18;96837.50;10385280;28;20029;-30
2023/06/27 16:34:26;;;;;;;5.37;1.43;;;;;;;22.02;58.40;96829.53;10329918;28;20520;-31
2023/06/27 16:39:27;;;;;;;3.22;1.77;;;;;;;21.92;56.91;96820.31;10362127;28;20042;-31
2023/06/27 16:44:27;;;;;;;3.67;1.03;;;;;;;21.77;56.64;96815.38;10353310;28;20418;-30
2023/06/27 16:49:27;;;;;;;4.57;0.90;;;;;;;21.68;56.66;96820.56;10369171;28;20061;-30
2023/06/27 16:54:28;;;;;;;4.80;1.07;;;;;;;21.60;56.93;96816.38;10376893;28;20297;-30
2023/06/27 16:59:28;;;;;;;2.83;1.13;;;;;;;21.61;56.79;96824.00;10344463;28;20434;-30
2023/06/27 17:04:28;;;;;;;3.03;1.23;;;;;;;21.60;56.85;96817.22;10367012;28;20049;-31
2023/06/27 17:09:29;;;;;;;2.20;0.90;;;;;;;21.61;57.16;96824.00;10326680;28;20396;-30
2023/06/27 17:14:29;;;;;;;3.40;1.07;;;;;;;21.58;56.67;96818.97;10377689;28;21052;-30
2023/06/27 17:19:29;;;;;;;3.27;1.50;;;;;;;21.83;55.75;96820.41;10365887;28;20033;-30
2023/06/27 17:24:30;;;;;;;1.87;1.10;;;;;;;21.89;55.71;96805.03;10384699;28;20514;-31
2023/06/27 17:29:30;;;;;;;5.93;2.43;;;;;;;21.83;55.62;96812.75;10343729;28;20521;-30
2023/06/27 17:34:31;;;;;;;2.57;1.37;;;;;;;21.69;56.15;96822.25;10351168;28;20061;-30
2023/06/27 17:39:31;;;;;;;2.23;0.90;;;;;;;21.65;56.43;96812.13;10383014;28;20045;-31
2023/06/27 17:44:31;;;;;;;1.93;1.10;;;;;;;21.60;56.11;96816.38;10342546;28;20045;-30
2023/06/27 17:49:32;;;;;;;2.53;1.10;;;;;;;21.59;56.19;96813.00;10342893;28;20038;-31
2023/06/27 17:54:32;;;;;;;1.90;1.20;;;;;;;21.58;56.33;96813.88;10358685;28;20391;-31
2023/06/27 17:59:33;;;;;;;3.47;1.03;;;;;;;21.63;56.31;96807.00;10357401;28;20549;-30
2023/06/27 18:04:33;;;;;;;4.22;1.40;;;;;;;21.70;54.56;96806.09;10385406;28;20040;-30
2023/06/27 18:09:33;;;;;;;2.40;1.33;;;;;;;21.88;55.00;96812.72;10386438;28;20044;-31
2023/06/27 18:14:34;;;;;;;2.37;0.97;;;;;;;21.91;55.17;96813.50;10360782;28;20087;-30
2023/06/27 18:19:36;;;;;;;1.77;0.90;;;;;;;21.79;55.54;96813.66;10377480;28;20561;-31
2023/06/27 18:24:36;;;;;;;2.33;0.90;;;;;;;21.70;55.83;96823.94;10364419;28;20169;-31
2023/06/27 18:29:37;;;;;;;2.88;1.40;;;;;;;21.65;56.15;96820.59;10354231;28;20099;-33
2023/06/27 18:34:37;;;;;;;1.03;0.93;;;;;;;21.63;56.29;96817.19;10359825;28;20049;-31
2023/06/27 18:39:37;;;;;;;1.10;0.80;;;;;;;21.60;56.27;96814.69;10393141;28;20025;-32
2023/06/27 18:44:38;;;;;;;2.37;1.77;;;;;;;21.57;56.34;96806.22;10377506;28;20116;-30
2023/06/27 18:49:38;;;;;;;2.07;0.90;;;;;;;21.59;56.24;96819.78;10371272;28;20462;-31
2023/06/27 18:54:41;;;;;;;2.07;0.93;;;;;;;21.71;55.58;96812.88;10387022;28;20079;-31
2023/06/27 18:59:41;;;;;;;2.50;1.05;;;;;;;21.89;54.48;96810.13;10377014;28;20030;-31
2023/06/27 19:04:42;;;;;;;3.17;1.40;;;;;;;21.86;54.92;96801.66;10356558;28;20041;-31
2023/06/27 19:09:42;;;;;;;1.83;1.00;;;;;;;21.75;55.38;96812.00;10370413;28;20038;-31
2023/06/27 19:14:42;;;;;;;2.33;0.80;;;;;;;21.69;55.87;96816.31;10375086;28;20048;-31
2023/06/27 19:19:45;;;;;;;2.60;1.03;;;;;;;21.64;55.93;96831.63;10376624;28;20054;-31
2023/06/27 19:24:45;;;;;;;1.48;0.95;;;;;;;21.60;55.87;96832.53;10368981;28;20069;-30
2023/06/27 19:29:46;;;;;;;1.73;0.90;;;;;;;21.59;55.81;96830.84;10349483;28;20124;-31
2023/06/27 19:34:47;;;;;;;1.48;0.75;;;;;;;21.57;55.84;96845.28;10359196;28;20668;-30
2023/06/27 19:39:47;;;;;;;2.00;0.80;;;;;;;21.57;56.33;96858.00;10363865;28;20041;-31
2023/06/27 19:44:48;;;;;;;6.83;1.20;;;;;;;21.77;53.93;96863.81;10359869;28;20800;-30
2023/06/27 19:49:48;;;;;;;2.95;1.48;;;;;;;21.89;53.07;96861.09;10376262;28;20048;-30
2023/06/27 19:54:51;;;;;;;2.30;1.10;;;;;;;21.82;54.32;96864.56;10378566;28;20357;-30
2023/06/27 19:59:51;;;;;;;2.03;1.25;;;;;;;21.73;54.64;96879.97;10375638;28;20072;-30
2023/06/27 20:04:52;;;;;;;2.80;1.10;;;;;;;21.65;55.30;96880.91;10373723;28;20137;-33
2023/06/27 20:09:52;;;;;;;0.90;0.80;;;;;;;21.57;55.46;96888.59;10374239;28;20032;-31
2023/06/27 20:14:52;;;;;;;2.53;1.10;;;;;;;21.58;55.68;96889.44;10371120;28;20171;-31
2023/06/27 20:19:53;;;;;;;1.40;0.87;;;;;;;21.57;55.86;96897.94;10382106;28;20033;-30
2023/06/27 20:24:53;;;;;;;2.73;1.17;;;;;;;21.54;55.64;96898.81;10385262;28;20037;-30
2023/06/27 20:29:54;;;;;;;2.90;1.30;;;;;;;21.64;53.12;96905.50;10371646;28;20030;-30
2023/06/27 20:34:55;;;;;;;3.85;1.60;;;;;;;21.82;52.02;96924.94;10368623;28;20070;-31
2023/06/27 20:39:55;;;;;;;4.70;1.97;;;;;;;21.88;51.06;96924.88;10392286;28;20132;-31
2023/06/27 20:44:55;;;;;;;4.03;1.60;;;;;;;21.79;52.45;96924.94;10365655;28;20072;-31
2023/06/27 20:49:56;;;;;;;1.75;1.40;;;;;;;21.64;54.76;96927.63;10359767;28;20417;-30
2023/06/27 20:54:56;;;;;;;0.90;0.70;;;;;;;21.49;55.51;96915.00;10393170;28;20045;-30
2023/06/27 20:59:57;;;;;;;3.23;0.80;;;;;;;21.45;55.64;96924.38;10396400;28;20115;-31
2023/06/27 21:04:57;;;;;;;1.33;0.47;;;;;;;21.39;55.81;96916.78;10398501;28;20037;-30
2023/06/27 21:09:57;;;;;;;4.30;1.70;;;;;;;20.69;51.87;96913.00;10379044;28;20034;-30
2023/06/27 21:14:58;;;;;;;4.00;1.90;;;;;;;20.39;50.17;96937.75;10387091;28;20361;-30
2023/06/27 21:19:58;;;;;;;3.67;2.40;;;;;;;20.23;50.12;96945.44;10378828;28;20045;-30
2023/06/27 21:24:59;;;;;;;3.88;1.73;;;;;;;20.11;50.17;96945.47;10379390;28;20289;-30
2023/06/27 21:29:59;;;;;;;5.77;1.87;;;;;;;20.05;49.87;96953.13;10365464;28;20453;-30
2023/06/27 21:34:59;;;;;;;3.00;2.17;;;;;;;20.08;49.68;96953.13;10386990;28;20029;-31
2023/06/27 21:40:00;;;;;;;4.40;1.57;;;;;;;19.91;49.92;96957.38;10364499;28;20296;-30
2023/06/27 21:45:00;;;;;;;3.70;1.80;;;;;;;19.92;49.80;96948.88;10361994;28;20087;-30
2023/06/27 21:50:00;;;;;;;3.23;1.80;;;;;;;20.02;49.60;96950.56;10372292;28;20117;-30
2023/06/27 21:55:01;;;;;;;1.60;1.17;;;;;;;19.94;49.63;96949.72;10374539;28;20044;-30
2023/06/27 22:00:01;;;;;;;2.93;1.60;;;;;;;19.95;49.19;96951.41;10382745;28;20042;-30
2023/06/27 22:05:01;;;;;;;5.67;2.20;;;;;;;19.87;49.56;96945.50;10351864;28;20041;-30
2023/06/27 22:10:03;;;;;;;3.90;1.90;;;;;;;19.90;49.26;96938.72;10390298;28;20033;-30
2023/06/27 22:15:04;;;;;;;3.83;1.60;;;;;;;19.84;49.56;96936.19;10362484;28;20291;-30
2023/06/27 22:20:08;;;;;;;4.32;2.17;;;;;;;19.81;48.97;96936.19;10380978;28;20160;-30
2023/06/27 22:25:08;;;;;;;3.42;1.60;;;;;;;19.72;49.37;96931.13;10387599;28;20033;-30
2023/06/27 22:30:10;;;;;;;3.70;2.00;;;;;;;19.63;49.15;96937.91;10398419;28;20757;-30
2023/06/27 22:35:10;;;;;;;3.50;2.30;;;;;;;19.63;49.35;96935.38;10383762;28;20443;-30
2023/06/27 22:40:11;;;;;;;2.58;1.42;;;;;;;19.56;49.60;96933.69;10401811;28;20060;-30
2023/06/27 22:45:12;;;;;;;4.38;2.10;;;;;;;19.46;49.76;96934.53;10373474;28;20034;-30
2023/06/27 22:50:12;;;;;;;5.23;2.30;;;;;;;19.36;50.14;96931.19;10390564;28;20426;-30
2023/06/27 22:55:13;;;;;;;5.20;2.10;;;;;;;19.33;50.19;96935.41;10373267;28;20033;-30
2023/06/27 23:00:14;;;;;;;2.75;1.60;;;;;;;19.35;50.28;96923.53;10390409;28;20171;-29
2023/06/27 23:05:14;;;;;;;3.75;2.25;;;;;;;19.31;49.95;96917.63;10393423;28;20116;-30
2023/06/27 23:10:14;;;;;;;4.80;1.83;;;;;;;19.28;50.09;96921.84;10392429;28;20042;-30
2023/06/27 23:15:15;;;;;;;2.13;1.50;;;;;;;19.31;49.87;96926.91;10378115;28;20703;-30
2023/06/27 23:20:17;;;;;;;2.58;1.77;;;;;;;19.20;50.19;96928.63;10384802;28;20417;-30